Time;durP1;ratioP1;P1;durP2;ratioP2;P2;SDS_P1;SDS_P2;PMS_P1;PMS_P2;Temp;Humidity;BMP_temperature;BMP_pressure;BME280_temperature;BME280_humidity;BME280_pressure;Samples;Min_cycle;Max_cycle;Signal;HPM_P1;HPM_P2
2022/11/15 00:00:55;;;;;;;91.60;42.60;;;;;;;5.65;98.37;99387.34;1682740;85;21145;-47
2022/11/15 00:03:25;;;;;;;93.05;43.98;;;;;;;5.72;98.23;99385.39;1682944;85;21055;-47
2022/11/15 00:05:51;;;;;;;84.20;39.92;;;;;;;5.77;98.12;99383.02;1682657;85;21010;-47
2022/11/15 00:08:17;;;;;;;76.42;40.00;;;;;;;5.76;97.58;99385.67;1682861;85;21594;-48
2022/11/15 00:10:54;;;;;;;84.70;40.28;;;;;;;5.78;97.38;99389.08;1682756;83;21078;-47
2022/11/15 00:13:20;;;;;;;84.85;41.15;;;;;;;5.75;97.17;99386.13;1682888;84;21492;-47
2022/11/15 00:15:46;;;;;;;77.00;38.80;;;;;;;5.79;97.06;99378.21;1682858;85;21010;-47
2022/11/15 00:18:16;;;;;;;80.75;38.98;;;;;;;5.80;96.92;99374.68;1682779;85;21035;-47
2022/11/15 00:20:42;;;;;;;82.62;40.33;;;;;;;5.77;96.78;99374.34;1682826;85;20997;-48
2022/11/15 00:23:08;;;;;;;74.77;37.35;;;;;;;5.79;96.88;99375.14;1682773;85;21019;-48
2022/11/15 00:25:34;;;;;;;80.15;39.70;;;;;;;5.70;96.94;99369.78;1682795;85;21405;-50
2022/11/15 00:28:01;;;;;;;86.10;40.92;;;;;;;5.69;96.96;99362.84;1682711;83;21759;-48
2022/11/15 00:30:28;;;;;;;77.87;39.00;;;;;;;5.69;96.97;99364.14;1683076;85;21487;-47
2022/11/15 00:32:54;;;;;;;86.40;40.28;;;;;;;5.71;96.86;99363.67;1682961;85;21014;-50
2022/11/15 00:35:21;;;;;;;78.25;38.33;;;;;;;5.71;97.02;99357.14;1682786;83;21002;-47
2022/11/15 00:37:47;;;;;;;75.87;38.35;;;;;;;5.65;96.98;99356.03;1682793;83;21512;-50
2022/11/15 00:40:14;;;;;;;80.07;39.67;;;;;;;5.66;96.97;99357.75;1682804;85;20983;-48
2022/11/15 00:42:40;;;;;;;83.78;39.88;;;;;;;5.69;96.86;99357.62;1682858;83;21529;-48
2022/11/15 00:45:07;;;;;;;84.20;39.65;;;;;;;5.72;97.09;99352.31;1682707;85;21026;-47
2022/11/15 00:47:33;;;;;;;80.07;40.23;;;;;;;5.70;96.99;99354.13;1684505;85;21071;-49
2022/11/15 00:49:59;;;;;;;75.55;36.75;;;;;;;5.72;96.94;99348.39;1692895;85;21015;-50
2022/11/15 00:52:25;;;;;;;83.10;39.83;;;;;;;5.77;96.84;99341.27;1692886;85;21490;-50
2022/11/15 00:54:50;;;;;;;82.20;38.40;;;;;;;5.72;96.98;99345.78;1692938;85;21050;-48
2022/11/15 00:57:16;;;;;;;86.97;40.38;;;;;;;5.67;97.01;99344.24;1693010;84;21043;-47
2022/11/15 00:59:42;;;;;;;80.65;39.23;;;;;;;5.67;96.89;99335.11;1692866;85;21130;-50
2022/11/15 01:02:08;;;;;;;86.20;39.42;;;;;;;5.66;96.93;99335.58;1692862;83;21058;-47
2022/11/15 01:04:34;;;;;;;74.47;38.00;;;;;;;5.67;96.96;99332.05;1692859;85;21019;-48
2022/11/15 01:06:59;;;;;;;78.70;38.25;;;;;;;5.69;97.08;99331.53;1692805;83;21079;-49
2022/11/15 01:09:25;;;;;;;76.40;37.30;;;;;;;5.68;96.95;99333.76;1692859;85;21015;-49
2022/11/15 01:11:52;;;;;;;77.45;37.63;;;;;;;5.65;96.93;99324.72;1692884;83;21054;-51
2022/11/15 01:14:17;;;;;;;73.73;37.53;;;;;;;5.61;97.04;99319.68;1693128;85;21042;-48
2022/11/15 01:16:43;;;;;;;73.07;34.63;;;;;;;5.63;96.95;99312.19;1692837;83;21015;-49
2022/11/15 01:19:09;;;;;;;78.65;36.38;;;;;;;5.61;97.00;99316.61;1692862;83;21042;-48
2022/11/15 01:21:35;;;;;;;67.53;34.43;;;;;;;5.67;96.73;99310.33;1692851;85;21011;-48
2022/11/15 01:24:01;;;;;;;76.82;36.28;;;;;;;5.62;96.78;99306.59;1692859;85;21012;-49
2022/11/15 01:26:27;;;;;;;72.03;35.68;;;;;;;5.65;96.76;99306.46;1692862;83;21049;-50
2022/11/15 01:28:53;;;;;;;71.97;34.35;;;;;;;5.69;96.66;99301.53;1692876;83;21007;-50
2022/11/15 01:31:21;;;;;;;66.97;34.27;;;;;;;5.62;96.79;99292.24;1692829;85;21007;-49
2022/11/15 01:33:48;;;;;;;72.90;36.17;;;;;;;5.65;96.56;99290.80;1692894;85;21003;-50
2022/11/15 01:36:18;;;;;;;70.00;33.33;;;;;;;5.60;96.78;99279.67;1693149;85;21017;-47
2022/11/15 01:38:44;;;;;;;70.08;35.20;;;;;;;5.51;97.16;99283.48;1692581;83;21496;-48
2022/11/15 01:41:20;;;;;;;73.72;34.83;;;;;;;5.53;97.29;99284.70;1692815;83;21002;-48
2022/11/15 01:43:51;;;;;;;72.92;36.10;;;;;;;5.57;97.23;99287.17;1692884;85;20995;-47
2022/11/15 01:46:25;;;;;;;65.50;33.02;;;;;;;5.56;97.28;99272.88;1692805;85;21011;-48
2022/11/15 01:48:54;;;;;;;68.92;34.75;;;;;;;5.60;97.16;99271.85;1692812;83;21035;-49
2022/11/15 01:51:23;;;;;;;68.42;33.40;;;;;;;5.63;97.39;99261.78;1692770;83;20986;-47
2022/11/15 01:53:53;;;;;;;67.80;34.33;;;;;;;5.57;97.27;99257.62;1692857;85;20995;-47
2022/11/15 01:56:23;;;;;;;69.22;34.73;;;;;;;5.57;97.15;99260.23;1692810;83;20987;-47
2022/11/15 01:58:51;;;;;;;66.35;32.95;;;;;;;5.62;96.98;99259.63;1693040;83;21059;-51
2022/11/15 02:01:17;;;;;;;69.80;34.88;;;;;;;5.65;97.23;99250.83;1692676;85;21080;-49
2022/11/15 02:03:54;;;;;;;61.15;32.38;;;;;;;5.61;97.09;99254.46;1669801;83;21041;-46
2022/11/15 02:06:22;;;;;;;67.05;31.62;;;;;;;5.52;97.38;99254.33;1692034;83;21074;-46
2022/11/15 02:08:48;;;;;;;67.25;32.70;;;;;;;5.45;97.68;99247.16;1692920;85;21059;-49
2022/11/15 02:11:14;;;;;;;64.87;31.93;;;;;;;5.46;97.90;99246.73;1692878;85;21513;-51
2022/11/15 02:13:40;;;;;;;65.55;33.02;;;;;;;5.47;97.60;99244.50;1692829;85;21067;-50
2022/11/15 02:16:17;;;;;;;62.65;32.83;;;;;;;5.43;97.96;99243.76;1692783;85;21022;-50
2022/11/15 02:18:49;;;;;;;;;;;;;;;5.44;98.04;99243.30;1695357;85;21058;-47
2022/11/15 02:21:23;;;;;;;64.10;32.38;;;;;;;5.35;98.21;99245.34;1692847;84;20111;-47
2022/11/15 02:24:32;;;;;;;62.98;31.37;;;;;;;5.42;98.45;99241.20;1692814;85;21058;-49
2022/11/15 02:27:33;;;;;;;66.40;33.75;;;;;;;5.42;98.38;99233.38;1692857;83;21018;-47
2022/11/15 02:30:14;;;;;;;63.45;32.85;;;;;;;5.45;98.56;99235.89;1636581;86;21038;-48
2022/11/15 02:33:24;;;;;;;70.08;34.08;;;;;;;5.47;98.23;99236.22;1627113;86;21060;-47
2022/11/15 02:36:10;;;;;;;63.75;32.08;;;;;;;5.44;98.30;99228.52;1627734;88;21114;-49
2022/11/15 02:38:44;;;;;;;63.95;33.10;;;;;;;5.46;98.25;99233.69;1588687;88;21031;-48
2022/11/15 02:41:27;;;;;;;63.23;32.60;;;;;;;5.46;97.97;99225.87;1628126;84;21118;-48
2022/11/15 02:44:07;;;;;;;60.90;31.05;;;;;;;5.45;98.22;99230.20;1689236;84;21004;-48
2022/11/15 02:49:40;;;;;;;66.90;33.23;;;;;;;5.48;98.31;99231.41;1695693;84;21059;-47
2022/11/15 02:52:05;;;;;;;64.35;32.83;;;;;;;5.46;98.34;99233.23;1695636;84;21548;-48
2022/11/15 02:54:33;;;;;;;60.28;32.03;;;;;;;5.51;98.36;99219.58;1695556;84;21102;-50
2022/11/15 02:57:07;;;;;;;;;;;;;;;5.53;98.14;99211.67;1698065;84;21009;-47
2022/11/15 03:00:07;;;;;;;57.67;29.70;;;;;;;5.46;97.87;99214.97;1694896;84;20388;-47
2022/11/15 03:03:05;;;;;;;54.40;28.95;;;;;;;5.45;98.12;99212.41;1659036;85;21552;-47
2022/11/15 03:06:01;;;;;;;60.60;29.00;;;;;;;5.42;98.54;99212.52;1663158;83;21457;-49
2022/11/15 03:08:48;;;;;;;59.80;30.75;;;;;;;5.43;98.40;99207.25;1718878;83;21023;-50
2022/11/15 03:11:18;;;;;;;57.98;30.20;;;;;;;5.45;98.49;99204.59;1719582;83;21611;-47
2022/11/15 03:14:14;;;;;;;61.20;29.72;;;;;;;5.43;98.56;99202.03;1719521;83;21008;-48
2022/11/15 03:16:57;;;;;;;58.50;28.47;;;;;;;5.48;98.45;99207.09;1719275;83;21011;-50
2022/11/15 03:19:40;;;;;;;51.92;27.75;;;;;;;5.54;98.14;99205.56;1719554;83;21516;-47
2022/11/15 03:22:10;;;;;;;53.50;27.77;;;;;;;5.54;97.71;99208.17;1719476;83;21504;-48
2022/11/15 03:24:38;;;;;;;57.25;28.77;;;;;;;5.51;97.49;99203.93;1719474;83;20999;-47
2022/11/15 03:27:06;;;;;;;53.68;28.47;;;;;;;5.47;97.56;99198.40;1719511;83;20991;-49
2022/11/15 03:29:43;;;;;;;55.28;27.67;;;;;;;5.48;97.93;99196.20;1719567;83;20995;-47
2022/11/15 03:32:19;;;;;;;57.40;27.27;;;;;;;5.49;98.15;99193.13;1719645;83;21007;-50
2022/11/15 03:34:58;;;;;;;54.30;27.17;;;;;;;5.48;98.11;99190.14;1719080;83;20964;-48
2022/11/15 03:37:56;;;;;;;57.13;27.90;;;;;;;5.49;98.13;99188.76;1719527;83;21015;-50
2022/11/15 03:40:39;;;;;;;56.73;28.12;;;;;;;5.51;97.97;99192.63;1719515;83;20988;-48
2022/11/15 03:43:30;;;;;;;52.38;28.15;;;;;;;5.47;98.20;99187.13;1680059;83;21523;-46
2022/11/15 03:46:10;;;;;;;57.88;26.77;;;;;;;5.49;98.24;99192.67;1640688;87;21096;-50
2022/11/15 03:48:40;;;;;;;52.17;26.68;;;;;;;5.53;98.24;99184.28;1677839;85;21008;-48
2022/11/15 03:51:06;;;;;;;59.38;29.37;;;;;;;5.51;97.88;99179.58;1689254;84;21008;-50
2022/11/15 03:53:32;;;;;;;54.45;27.65;;;;;;;5.51;97.76;99182.19;1689421;84;21528;-49
2022/11/15 03:55:58;;;;;;;52.45;26.75;;;;;;;5.52;97.86;99178.69;1684483;84;21517;-48
2022/11/15 03:58:24;;;;;;;53.98;28.17;;;;;;;5.48;97.72;99171.42;1679789;85;21001;-47
2022/11/15 04:00:50;;;;;;;54.98;28.30;;;;;;;5.47;97.91;99172.32;1679807;85;21486;-48
2022/11/15 04:03:15;;;;;;;57.83;28.50;;;;;;;5.51;98.01;99173.93;1679753;85;20997;-46
2022/11/15 04:05:41;;;;;;;51.92;26.57;;;;;;;5.59;98.13;99169.73;1679622;85;20997;-48
2022/11/15 04:08:07;;;;;;;51.35;26.60;;;;;;;5.58;97.95;99168.02;1679713;85;21137;-50
2022/11/15 04:10:33;;;;;;;52.90;26.73;;;;;;;5.61;97.67;99167.07;1679726;85;21055;-48
2022/11/15 04:12:58;;;;;;;46.58;25.35;;;;;;;5.61;97.55;99173.13;1679840;85;21003;-49
2022/11/15 04:15:24;;;;;;;51.83;25.57;;;;;;;5.62;97.42;99169.63;1679684;85;21040;-51
2022/11/15 04:17:56;;;;;;;49.15;25.70;;;;;;;5.62;96.95;99159.19;1679681;85;20996;-48
2022/11/15 04:26:17;;;;;;;52.33;27.05;;;;;;;5.59;97.36;99155.39;1679685;85;21620;-49
2022/11/15 04:31:27;;;;;;;51.00;24.98;;;;;;;5.60;97.33;99144.02;1679693;85;20988;-49
2022/11/15 04:33:54;;;;;;;52.60;26.17;;;;;;;5.45;97.63;99142.00;1679758;85;21035;-47
2022/11/15 04:39:04;;;;;;;54.80;25.48;;;;;;;5.58;97.71;99143.23;1679664;85;20984;-52
2022/11/15 04:41:30;;;;;;;51.13;25.02;;;;;;;5.61;97.61;99137.07;1679807;84;21056;-49
2022/11/15 04:43:56;;;;;;;47.17;24.85;;;;;;;5.63;97.26;99132.64;1689065;85;20988;-48
2022/11/15 04:46:23;;;;;;;48.83;24.70;;;;;;;5.58;97.00;99128.89;1662223;86;21007;-50
2022/11/15 04:48:50;;;;;;;50.75;24.10;;;;;;;5.61;96.79;99126.17;1697560;84;20995;-48
2022/11/15 04:51:16;;;;;;;48.70;25.23;;;;;;;5.51;97.21;99128.72;1660950;86;21020;-48
2022/11/15 04:53:42;;;;;;;47.65;23.92;;;;;;;5.49;97.29;99117.50;1662144;86;21000;-47
2022/11/15 04:56:08;;;;;;;43.10;23.80;;;;;;;5.45;97.49;99126.35;1632484;86;20992;-49
2022/11/15 04:58:34;;;;;;;48.48;24.02;;;;;;;5.48;97.28;99123.64;1662154;86;21489;-49
2022/11/15 05:01:09;;;;;;;46.53;24.47;;;;;;;5.55;96.85;99125.95;1689657;84;21004;-48
2022/11/15 05:06:19;;;;;;;44.63;23.20;;;;;;;5.54;97.07;99123.40;1662108;86;21439;-49
2022/11/15 05:08:45;;;;;;;42.53;24.18;;;;;;;5.60;96.92;99128.84;1660811;86;21485;-52
2022/11/15 05:11:11;;;;;;;51.23;24.23;;;;;;;5.62;96.81;99120.06;1662118;86;21059;-51
2022/11/15 05:13:36;;;;;;;45.35;23.60;;;;;;;5.66;96.72;99126.86;1697488;84;21470;-51
2022/11/15 05:16:02;;;;;;;39.80;22.45;;;;;;;5.70;96.56;99124.98;1660398;85;21484;-52
2022/11/15 05:18:28;;;;;;;44.98;23.77;;;;;;;5.71;96.27;99128.84;1662089;86;20992;-51
2022/11/15 05:20:54;;;;;;;43.23;23.95;;;;;;;5.67;96.08;99129.84;1697376;84;21058;-52
2022/11/15 05:23:20;;;;;;;50.35;24.92;;;;;;;5.64;96.25;99129.11;1689986;85;20996;-50
2022/11/15 05:25:45;;;;;;;47.40;24.20;;;;;;;5.67;96.17;99135.06;1662177;86;21493;-53
2022/11/15 05:28:11;;;;;;;49.05;24.43;;;;;;;5.67;96.23;99131.61;1697543;84;21471;-50
2022/11/15 05:30:37;;;;;;;46.53;24.10;;;;;;;5.67;96.14;99127.23;1689895;85;21015;-48
2022/11/15 05:33:03;;;;;;;43.40;24.45;;;;;;;5.65;96.04;99122.53;1662009;86;21020;-49
2022/11/15 05:35:39;;;;;;;43.13;23.57;;;;;;;5.47;96.09;99115.41;1697330;84;21071;-48
2022/11/15 05:38:05;;;;;;;43.98;24.20;;;;;;;5.53;96.15;99119.08;1689868;85;21011;-49
2022/11/15 05:40:32;;;;;;;47.45;24.55;;;;;;;5.43;96.55;99122.48;1662130;86;21528;-49
2022/11/15 05:43:00;;;;;;;44.83;25.00;;;;;;;5.41;96.93;99109.13;1694909;84;21020;-49
2022/11/15 05:45:26;;;;;;;44.45;23.92;;;;;;;5.41;96.93;99109.13;1714829;83;21486;-49
2022/11/15 05:47:55;;;;;;;47.58;25.48;;;;;;;5.32;96.99;99105.94;1714223;84;21019;-48
2022/11/15 05:50:21;;;;;;;49.60;24.35;;;;;;;5.32;97.14;99109.84;1714255;84;21012;-52
2022/11/15 05:52:48;;;;;;;48.20;24.32;;;;;;;5.35;97.30;99108.44;1714202;84;21000;-51
2022/11/15 05:55:14;;;;;;;45.67;24.55;;;;;;;5.41;97.46;99101.30;1714309;84;21008;-51
2022/11/15 05:57:40;;;;;;;49.98;25.08;;;;;;;5.43;97.29;99108.15;1714564;84;21548;-50
2022/11/15 06:00:09;;;;;;;50.10;25.72;;;;;;;5.45;96.95;99102.41;1714215;84;21047;-52
2022/11/15 06:02:35;;;;;;;49.08;24.92;;;;;;;5.44;96.83;99105.08;1714204;84;21671;-51
2022/11/15 06:05:01;;;;;;;53.85;26.80;;;;;;;5.45;97.05;99097.66;1714307;84;21035;-49
2022/11/15 06:07:26;;;;;;;51.37;25.40;;;;;;;5.48;96.85;99101.47;1714236;84;21000;-49
2022/11/15 06:09:52;;;;;;;47.13;24.37;;;;;;;5.47;96.90;99098.45;1714246;84;20980;-50
2022/11/15 06:12:18;;;;;;;42.48;23.50;;;;;;;5.46;96.99;99103.29;1714190;84;21043;-49
2022/11/15 06:14:44;;;;;;;48.68;24.12;;;;;;;5.47;96.87;99098.45;1714182;84;21032;-49
2022/11/15 06:17:09;;;;;;;44.23;23.45;;;;;;;5.47;96.80;99093.23;1714205;84;21003;-49
2022/11/15 06:19:35;;;;;;;46.55;23.95;;;;;;;5.52;96.57;99093.92;1714207;84;21004;-50
2022/11/15 06:22:01;;;;;;;47.85;24.45;;;;;;;5.60;96.45;99097.53;1714296;84;21000;-49
2022/11/15 06:24:27;;;;;;;46.02;23.25;;;;;;;5.57;96.24;99094.14;1714255;84;21469;-50
2022/11/15 06:26:53;;;;;;;57.98;24.20;;;;;;;5.54;96.08;99091.63;1714219;84;21465;-46
2022/11/15 06:29:19;;;;;;;56.65;25.68;;;;;;;5.49;95.99;99090.11;1714146;84;21003;-48
2022/11/15 06:31:44;;;;;;;46.15;24.35;;;;;;;5.46;96.37;99091.55;1714179;84;21047;-51
2022/11/15 06:34:10;;;;;;;46.05;22.77;;;;;;;5.48;96.15;99092.34;1714215;84;21135;-50
2022/11/15 06:36:37;;;;;;;51.02;24.20;;;;;;;5.44;96.42;99089.43;1714174;84;21015;-51
2022/11/15 06:39:05;;;;;;;46.98;24.35;;;;;;;5.46;96.23;99088.95;1714342;84;20999;-49
2022/11/15 06:41:35;;;;;;;49.10;23.80;;;;;;;5.45;95.96;99097.66;1714188;84;21477;-48
2022/11/15 06:44:02;;;;;;;66.40;25.40;;;;;;;5.46;96.30;99096.77;1713628;82;21047;-47
2022/11/15 06:46:28;;;;;;;52.40;25.40;;;;;;;5.49;96.37;99090.11;1714267;84;21517;-49
2022/11/15 06:48:54;;;;;;;51.60;26.48;;;;;;;5.51;96.37;99092.20;1714210;84;21055;-51
2022/11/15 06:51:20;;;;;;;57.60;27.62;;;;;;;5.55;96.60;99093.34;1714161;84;20976;-49
2022/11/15 06:53:46;;;;;;;50.48;25.30;;;;;;;5.57;96.56;99094.59;1714192;83;21027;-51
2022/11/15 06:56:12;;;;;;;46.83;23.75;;;;;;;5.60;96.37;99097.07;1714173;84;21012;-49
2022/11/15 06:58:38;;;;;;;57.48;27.07;;;;;;;5.59;96.05;99098.00;1714130;84;21008;-47
2022/11/15 07:01:11;;;;;;;51.42;27.00;;;;;;;5.61;95.96;99096.17;1714257;84;21007;-50
2022/11/15 07:03:40;;;;;;;56.55;26.45;;;;;;;5.61;96.04;99093.56;1713805;84;21471;-51
2022/11/15 07:06:06;;;;;;;53.13;25.12;;;;;;;5.63;96.07;99093.52;1714177;84;20996;-51
2022/11/15 07:08:32;;;;;;;62.97;26.40;;;;;;;5.64;96.06;99095.20;1714305;84;21000;-49
2022/11/15 07:11:01;;;;;;;49.08;25.62;;;;;;;5.70;95.90;99094.52;1714129;84;21004;-49
2022/11/15 07:13:29;;;;;;;61.10;24.27;;;;;;;5.73;95.86;99102.23;1714166;84;21020;-51
2022/11/15 07:15:54;;;;;;;;;;;;;;;5.77;95.61;99098.59;1716724;84;21489;-50
2022/11/15 07:18:21;;;;;;;78.28;27.42;;;;;;;5.78;95.22;99105.95;1714183;84;20109;-51
2022/11/15 07:20:47;;;;;;;54.88;26.20;;;;;;;5.82;95.07;99099.73;1713402;84;21476;-49
2022/11/15 07:23:13;;;;;;;53.60;27.70;;;;;;;5.88;95.22;99099.94;1714121;84;21512;-50
2022/11/15 07:25:38;;;;;;;57.17;28.05;;;;;;;5.92;94.91;99095.83;1714076;84;21008;-51
2022/11/15 07:28:04;;;;;;;51.37;26.77;;;;;;;5.96;94.52;99091.38;1696912;84;21008;-48
2022/11/15 07:30:30;;;;;;;46.65;24.92;;;;;;;5.97;94.09;99099.61;1691720;85;21031;-48
2022/11/15 07:32:58;;;;;;;55.03;26.00;;;;;;;5.98;93.69;99099.98;1691756;85;21016;-50
2022/11/15 07:35:26;;;;;;;48.63;25.45;;;;;;;6.01;93.85;99093.34;1691725;85;21055;-50
2022/11/15 07:38:02;;;;;;;49.73;24.65;;;;;;;5.98;93.33;99102.59;1691732;85;21000;-51
2022/11/15 07:40:31;;;;;;;45.60;24.15;;;;;;;5.98;93.31;99101.75;1691725;85;21000;-50
2022/11/15 07:43:02;;;;;;;56.37;26.70;;;;;;;6.00;93.09;99104.69;1691710;85;21033;-50
2022/11/15 07:45:29;;;;;;;51.73;25.20;;;;;;;6.01;93.14;99099.03;1690624;85;21007;-51
2022/11/15 07:47:55;;;;;;;58.08;26.35;;;;;;;5.99;92.96;99100.39;1687305;85;20969;-47
2022/11/15 07:50:24;;;;;;;44.60;25.80;;;;;;;6.03;93.28;99104.58;1678505;85;21542;-47
2022/11/15 07:52:57;;;;;;;51.95;26.25;;;;;;;6.10;93.21;99096.05;1691933;84;21479;-51
2022/11/15 07:55:25;;;;;;;54.33;25.52;;;;;;;6.09;92.69;99089.12;1692042;84;21029;-48
2022/11/15 07:57:51;;;;;;;48.20;26.80;;;;;;;6.07;92.56;99085.72;1692137;85;21037;-47
2022/11/15 08:00:17;;;;;;;51.92;26.45;;;;;;;6.10;92.72;99079.92;1691996;85;20996;-47
2022/11/15 08:02:43;;;;;;;50.58;27.02;;;;;;;6.14;93.03;99080.19;1692064;85;21475;-47
2022/11/15 08:05:09;;;;;;;53.68;28.02;;;;;;;6.22;92.97;99077.72;1691898;84;20977;-48
2022/11/15 08:07:35;;;;;;;52.90;26.82;;;;;;;6.23;92.46;99083.35;1692031;84;21013;-47
2022/11/15 08:10:01;;;;;;;59.30;27.25;;;;;;;6.27;92.57;99081.00;1685050;85;21013;-48
2022/11/15 08:12:29;;;;;;;55.25;27.00;;;;;;;6.30;92.33;99078.27;1690843;84;20982;-51
2022/11/15 08:14:56;;;;;;;55.50;26.10;;;;;;;6.37;92.31;99075.80;1676312;84;21012;-48
2022/11/15 08:17:24;;;;;;;47.98;26.07;;;;;;;6.46;92.30;99073.27;1692174;84;20993;-49
2022/11/15 08:19:50;;;;;;;39.60;22.37;;;;;;;6.49;91.65;99079.65;1691706;85;20973;-50
2022/11/15 08:22:17;;;;;;;45.90;24.35;;;;;;;6.51;91.36;99076.08;1691062;82;21514;-48
2022/11/15 08:24:44;;;;;;;46.83;24.70;;;;;;;6.51;90.94;99070.85;1691995;84;21061;-48
2022/11/15 08:27:14;;;;;;;48.60;25.20;;;;;;;6.58;91.18;99066.66;1691926;84;20989;-48
2022/11/15 08:29:38;;;;;;;46.35;25.05;;;;;;;6.64;91.11;99071.18;1685859;84;20978;-50
2022/11/15 08:32:04;;;;;;;43.40;24.37;;;;;;;6.86;90.70;99069.79;1680852;85;21044;-48
2022/11/15 08:34:30;;;;;;;40.30;22.98;;;;;;;7.25;90.44;99055.00;1692064;84;21005;-51
2022/11/15 08:36:55;;;;;;;40.43;22.55;;;;;;;7.57;88.52;99057.45;1683792;84;21494;-49
2022/11/15 08:39:22;;;;;;;38.23;22.35;;;;;;;7.86;86.88;99052.61;1675631;84;20973;-50
2022/11/15 08:41:48;;;;;;;35.63;20.90;;;;;;;8.15;85.84;99058.18;1681605;84;21005;-50
2022/11/15 08:44:14;;;;;;;40.45;22.13;;;;;;;8.27;84.19;99054.97;1677632;84;21080;-46
2022/11/15 08:46:39;;;;;;;37.98;21.02;;;;;;;8.39;83.62;99054.36;1686156;85;21150;-48
2022/11/15 08:49:05;;;;;;;38.85;21.75;;;;;;;8.53;82.43;99044.98;1683020;84;21037;-51
2022/11/15 08:51:31;;;;;;;31.65;19.95;;;;;;;8.59;82.62;99042.91;1676192;85;20994;-48
2022/11/15 08:53:57;;;;;;;37.55;20.23;;;;;;;8.51;82.66;99041.12;1664171;86;21011;-45
2022/11/15 08:56:23;;;;;;;36.63;21.30;;;;;;;8.32;82.23;99049.52;1664015;86;21512;-46
2022/11/15 08:58:49;;;;;;;36.68;21.75;;;;;;;8.24;82.61;99048.56;1664046;86;21480;-48
2022/11/15 09:01:18;;;;;;;31.35;20.50;;;;;;;8.12;82.81;99038.24;1666894;85;20997;-49
2022/11/15 09:03:44;;;;;;;34.25;20.23;;;;;;;8.06;82.96;99035.47;1679039;85;21061;-49
2022/11/15 09:06:09;;;;;;;40.55;22.07;;;;;;;8.04;83.17;99029.46;1691779;84;21392;-50
2022/11/15 09:08:35;;;;;;;40.63;21.33;;;;;;;8.07;83.89;99033.22;1691794;85;21009;-54
2022/11/15 09:11:06;;;;;;;41.95;24.10;;;;;;;8.03;83.88;99038.22;1691951;84;20973;-50
2022/11/15 09:13:32;;;;;;;44.00;23.47;;;;;;;7.96;83.79;99026.83;1691790;85;21501;-49
2022/11/15 09:15:59;;;;;;;41.88;22.27;;;;;;;7.99;84.59;99032.76;1692008;85;21041;-49
2022/11/15 09:18:25;;;;;;;37.00;22.27;;;;;;;7.96;84.56;99025.52;1692044;85;20979;-49
2022/11/15 09:20:51;;;;;;;34.60;21.12;;;;;;;7.97;84.67;99037.70;1674500;85;21013;-50
2022/11/15 09:23:17;;;;;;;38.98;22.75;;;;;;;7.99;84.84;99035.38;1691091;85;21041;-50
2022/11/15 09:25:42;;;;;;;37.17;22.52;;;;;;;8.03;85.06;99031.67;1691796;85;21001;-50
2022/11/15 09:28:08;;;;;;;38.15;21.70;;;;;;;8.04;84.75;99031.20;1691656;85;21526;-48
2022/11/15 09:30:34;;;;;;;42.73;21.37;;;;;;;8.06;85.20;99028.92;1677576;84;21017;-52
2022/11/15 09:33:10;;;;;;;38.45;21.93;;;;;;;8.10;85.14;99031.39;1678853;85;21475;-51
2022/11/15 09:35:36;;;;;;;39.73;21.10;;;;;;;8.11;84.61;99019.98;1673825;85;21037;-50
2022/11/15 09:38:03;;;;;;;35.75;21.70;;;;;;;8.16;84.97;99024.06;1673210;85;20997;-48
2022/11/15 09:40:31;;;;;;;44.37;21.33;;;;;;;8.20;84.84;99025.59;1688716;85;20953;-47
2022/11/15 09:43:03;;;;;;;38.75;21.07;;;;;;;8.23;85.11;99016.28;1677913;84;21001;-48
2022/11/15 09:45:56;;;;;;;41.63;21.82;;;;;;;8.27;84.95;99013.05;1651973;87;21070;-48
2022/11/15 09:48:43;;;;;;;36.60;20.92;;;;;;;8.31;84.66;99009.34;1639970;87;21508;-47
2022/11/15 09:51:21;;;;;;;38.15;22.25;;;;;;;8.36;84.83;99006.03;1616848;87;21019;-47
2022/11/15 09:54:04;;;;;;;35.40;20.40;;;;;;;8.39;84.38;99005.89;1615661;87;21015;-50
2022/11/15 09:56:34;;;;;;;35.92;22.00;;;;;;;8.42;84.04;98993.11;1636260;86;20965;-44
2022/11/15 09:59:25;;;;;;;33.88;20.62;;;;;;;8.47;84.47;98991.11;1689146;84;21024;-44
2022/11/15 10:02:05;;;;;;;38.88;21.97;;;;;;;8.55;84.56;98986.77;1681992;85;21000;-44
2022/11/15 10:04:31;;;;;;;36.38;21.12;;;;;;;8.57;84.17;98979.70;1690461;85;20999;-46
2022/11/15 10:07:21;;;;;;;33.90;21.02;;;;;;;8.62;84.55;98982.91;1681998;85;21399;-43
2022/11/15 10:09:57;;;;;;;35.85;22.10;;;;;;;8.66;84.17;98972.67;1668660;83;21629;-44
2022/11/15 10:12:24;;;;;;;38.15;21.17;;;;;;;8.71;83.87;98976.34;1671778;85;21028;-47
2022/11/15 10:14:54;;;;;;;32.85;21.10;;;;;;;8.76;83.82;98974.33;1685340;85;21041;-47
2022/11/15 10:17:59;;;;;;;34.55;21.12;;;;;;;8.81;83.80;98971.84;1681927;85;21016;-48
2022/11/15 10:20:29;;;;;;;37.00;20.68;;;;;;;8.88;83.85;98964.95;1682362;85;21005;-49
2022/11/15 10:23:00;;;;;;;33.42;20.27;;;;;;;8.92;83.63;98973.06;1684602;85;21408;-49
2022/11/15 10:25:29;;;;;;;33.98;18.92;;;;;;;8.96;83.37;98969.33;1684679;85;21612;-50
2022/11/15 10:28:03;;;;;;;37.73;20.40;;;;;;;8.98;82.71;98963.53;1690687;83;21003;-50
2022/11/15 10:30:39;;;;;;;32.30;19.92;;;;;;;9.01;82.90;98955.52;1672144;82;21001;-50
2022/11/15 10:33:29;;;;;;;34.95;18.95;;;;;;;9.06;83.07;98952.18;1675109;83;21005;-51
2022/11/15 10:36:15;;;;;;;36.13;19.70;;;;;;;9.14;83.59;98939.95;1689125;83;21096;-50
2022/11/15 10:38:54;;;;;;;34.73;19.43;;;;;;;9.20;83.28;98940.47;1691762;83;21531;-47
2022/11/15 10:41:34;;;;;;;37.78;19.50;;;;;;;9.26;82.86;98944.97;1685396;83;21435;-47
2022/11/15 10:44:25;;;;;;;37.65;20.68;;;;;;;9.32;82.60;98941.55;1710067;83;21020;-49
2022/11/15 10:47:00;;;;;;;35.03;18.75;;;;;;;9.38;82.67;98933.80;1691652;83;20980;-51
2022/11/15 10:49:32;;;;;;;31.90;20.48;;;;;;;9.39;82.03;98932.88;1682359;83;21081;-45
2022/11/15 10:52:06;;;;;;;37.50;20.12;;;;;;;9.43;81.95;98925.68;1673382;85;20957;-44
2022/11/15 10:54:49;;;;;;;34.95;20.65;;;;;;;9.45;81.99;98924.64;1687444;83;21486;-43
2022/11/15 10:57:21;;;;;;;29.25;19.15;;;;;;;9.46;81.54;98918.92;1698185;83;20999;-43
2022/11/15 10:59:51;;;;;;;34.67;19.77;;;;;;;9.46;81.15;98918.48;1659765;86;21081;-43
2022/11/15 11:02:39;;;;;;;32.40;18.87;;;;;;;9.48;80.88;98913.98;1659586;85;20999;-47
2022/11/15 11:05:29;;;;;;;30.88;19.02;;;;;;;9.53;81.40;98918.95;1659696;86;21493;-49
2022/11/15 11:08:02;;;;;;;32.63;18.35;;;;;;;9.58;81.80;98917.75;1667655;85;21470;-48
2022/11/15 11:10:30;;;;;;;33.73;19.67;;;;;;;9.60;81.25;98909.80;1612302;86;21333;-49
2022/11/15 11:12:58;;;;;;;27.07;17.15;;;;;;;9.64;81.69;98906.53;1699786;83;21015;-48
2022/11/15 11:15:28;;;;;;;29.72;19.45;;;;;;;9.65;80.76;98914.80;1718589;83;21007;-47
2022/11/15 11:18:05;;;;;;;34.48;18.35;;;;;;;9.68;81.05;98913.28;1686872;83;21113;-50
2022/11/15 11:20:42;;;;;;;33.33;18.32;;;;;;;9.69;80.32;98914.52;1667167;85;21473;-50
2022/11/15 11:23:28;;;;;;;30.37;19.92;;;;;;;9.75;80.18;98906.75;1670170;85;21037;-48
2022/11/15 11:26:44;;;;;;;32.53;18.87;;;;;;;9.81;80.32;98894.59;1661406;85;21036;-45
2022/11/15 11:29:33;;;;;;;26.93;18.42;;;;;;;9.85;79.81;98893.95;1660155;85;20995;-43
2022/11/15 11:32:04;;;;;;;39.53;20.08;;;;;;;9.91;80.55;98890.47;1669452;84;21039;-50
2022/11/15 11:34:57;;;;;;;37.85;19.82;;;;;;;10.00;80.81;98893.03;1647686;85;21029;-47
2022/11/15 11:37:37;;;;;;;39.95;20.90;;;;;;;10.05;80.52;98885.72;1680525;85;20993;-47
2022/11/15 11:40:24;;;;;;;30.37;17.87;;;;;;;10.13;80.61;98881.31;1660251;85;21065;-47
2022/11/15 11:43:01;;;;;;;33.18;18.35;;;;;;;10.21;80.43;98879.56;1657331;86;20989;-48
2022/11/15 11:45:51;;;;;;;26.57;16.75;;;;;;;10.25;80.49;98872.70;1682941;85;21092;-51
2022/11/15 11:48:44;;;;;;;28.17;18.60;;;;;;;10.28;79.53;98874.31;1651511;83;21064;-44
2022/11/15 11:51:30;;;;;;;31.23;19.05;;;;;;;10.35;79.72;98879.13;1714486;83;20985;-48
2022/11/15 11:54:22;;;;;;;28.17;18.45;;;;;;;10.40;79.48;98881.46;1701127;83;21054;-49
2022/11/15 11:56:50;;;;;;;29.95;18.42;;;;;;;10.41;79.07;98882.33;1690819;85;21012;-46
2022/11/15 11:59:45;;;;;;;29.80;19.23;;;;;;;10.38;78.20;98876.77;1682564;83;20976;-48
2022/11/15 12:02:28;;;;;;;32.65;18.55;;;;;;;10.38;78.49;98877.61;1705651;83;20964;-48